createdAt,value
2019-06-07T00:01:00.147Z,101263.16
2019-06-07T00:03:30.417Z,101258.14
2019-06-07T00:05:59.816Z,101249.75
2019-06-07T00:08:29.604Z,101247.55
2019-06-07T00:10:58.809Z,101248.53
2019-06-07T00:13:28.039Z,101243.97
2019-06-07T00:15:57.121Z,101234.74
2019-06-07T00:18:26.393Z,101227.54
2019-06-07T00:20:56.703Z,101232.65
2019-06-07T00:23:25.983Z,101218.47
2019-06-07T00:25:55.170Z,101216.43
2019-06-07T00:28:24.509Z,101211.33
2019-06-07T00:30:54.076Z,101211.33
2019-06-07T00:33:24.736Z,101213.88
2019-06-07T00:35:54.220Z,101216.58
2019-06-07T00:38:23.341Z,101217.72
2019-06-07T00:40:52.453Z,101217.72
2019-06-07T00:43:27.926Z,101218.25
2019-06-07T00:45:52.566Z,101219.75
2019-06-07T00:48:31.320Z,101216.75
2019-06-07T00:50:52.618Z,101213.28
2019-06-07T00:53:31.240Z,101220.41
2019-06-07T00:55:52.729Z,101215.13
2019-06-07T00:58:27.510Z,101220.02
2019-06-07T01:00:52.765Z,101214.69
2019-06-07T01:03:25.296Z,101209.50
2019-06-07T01:05:52.797Z,101204.13
2019-06-07T01:08:25.753Z,101208.75
2019-06-07T01:10:54.287Z,101208.75
2019-06-07T01:13:26.493Z,101218.50
2019-06-07T01:15:54.556Z,101208.61
2019-06-07T01:18:37.898Z,101207.73
2019-06-07T01:20:54.676Z,101210.09
2019-06-07T01:23:59.450Z,101206.87
2019-06-07T01:25:54.661Z,101195.95
2019-06-07T01:28:26.419Z,101197.36
2019-06-07T01:30:54.766Z,101191.82
2019-06-07T01:33:39.666Z,101194.45
2019-06-07T01:35:54.790Z,101199.60
2019-06-07T01:38:25.028Z,101206.81
2019-06-07T01:40:54.823Z,101197.34
2019-06-07T01:43:27.086Z,101192.12
2019-06-07T01:45:54.932Z,101188.34
2019-06-07T01:48:29.552Z,101194.50
2019-06-07T01:50:54.962Z,101193.23
2019-06-07T01:53:25.917Z,101184.98
2019-06-07T01:55:55.114Z,101186.83
2019-06-07T01:58:27.378Z,101180.56
2019-06-07T02:00:55.496Z,101179.03
2019-06-07T02:03:28.072Z,101179.73
2019-06-07T02:05:55.618Z,101188.94
2019-06-07T02:08:27.239Z,101183.95
2019-06-07T02:10:55.727Z,101170.91
2019-06-07T02:13:27.855Z,101176.39
2019-06-07T02:15:55.889Z,101182.77
2019-06-07T02:18:28.079Z,101178.01
2019-06-07T02:20:55.986Z,101175.11
2019-06-07T02:23:30.353Z,101174.16
2019-06-07T02:25:56.069Z,101179.80
2019-06-07T02:28:34.654Z,101182.58
2019-06-07T02:31:00.193Z,101181.59
2019-06-07T02:33:33.510Z,101178.22
2019-06-07T02:35:57.905Z,101171.76
2019-06-07T02:38:29.688Z,101163.96
2019-06-07T02:40:58.084Z,101167.56
2019-06-07T02:43:28.370Z,101156.95
2019-06-07T02:46:21.335Z,101163.46
2019-06-07T02:48:35.265Z,101155.68
2019-06-07T02:50:59.769Z,101154.27
2019-06-07T02:53:30.793Z,101155.55
2019-06-07T02:56:34.903Z,101144.64
2019-06-07T02:58:37.228Z,101141.05
2019-06-07T03:01:08.413Z,101142.94
2019-06-07T03:03:35.986Z,101137.84
2019-06-07T03:06:04.072Z,101135.52
2019-06-07T03:08:36.587Z,101134.33
2019-06-07T03:11:06.014Z,101131.91
2019-06-07T03:13:40.802Z,101131.91
2019-06-07T03:16:10.669Z,101125.27
2019-06-07T03:18:54.846Z,101120.91
2019-06-07T03:21:27.800Z,101122.66
2019-06-07T03:23:57.392Z,101121.86
2019-06-07T03:26:27.815Z,101121.86
2019-06-07T03:28:58.194Z,101118.91
2019-06-07T03:31:31.399Z,101117.35
2019-06-07T03:33:58.346Z,101116.14
2019-06-07T03:36:27.582Z,101116.28
2019-06-07T03:38:56.747Z,101113.29
2019-06-07T03:41:28.324Z,101109.38
2019-06-07T03:43:56.668Z,101109.38
2019-06-07T03:46:27.245Z,101108.81
2019-06-07T03:48:56.497Z,101110.23
2019-06-07T03:51:27.382Z,101111.95
2019-06-07T03:53:56.454Z,101107.81
2019-06-07T03:56:25.660Z,101107.48
2019-06-07T03:58:54.698Z,101099.02
2019-06-07T04:01:23.810Z,101099.02
2019-06-07T04:03:52.838Z,101104.84
2019-06-07T04:06:21.970Z,101105.45
2019-06-07T04:08:51.154Z,101099.16
2019-06-07T04:11:20.370Z,101091.94
2019-06-07T04:13:49.481Z,101097.19
2019-06-07T04:16:18.690Z,101094.77
2019-06-07T04:18:47.875Z,101088.66
2019-06-07T04:21:17.028Z,101083.27
2019-06-07T04:23:46.146Z,101083.27
2019-06-07T04:26:15.253Z,101090.91
2019-06-07T04:31:15.213Z,101089.12
2019-06-07T04:33:44.347Z,101074.95
2019-06-07T04:36:14.401Z,101077.59
2019-06-07T04:38:43.902Z,101074.99
2019-06-07T04:41:14.106Z,101076.63
2019-06-07T04:43:43.918Z,101068.70
2019-06-07T04:46:13.706Z,101062.59
2019-06-07T04:48:45.579Z,101056.09
2019-06-07T04:51:15.639Z,101069.64
2019-06-07T04:53:44.794Z,101076.33
2019-06-07T04:56:13.888Z,101076.33
2019-06-07T04:58:43.147Z,101074.95
2019-06-07T05:01:26.668Z,101069.29
2019-06-07T05:03:44.262Z,101068.01
2019-06-07T05:06:13.743Z,101068.01
2019-06-07T05:08:43.950Z,101068.36
2019-06-07T05:11:13.279Z,101063.84
2019-06-07T05:13:43.794Z,101054.78
2019-06-07T05:16:13.403Z,101054.78
2019-06-07T05:18:43.240Z,101048.88
2019-06-07T05:21:12.605Z,101055.44
2019-06-07T05:24:05.934Z,101041.77
2019-06-07T05:26:13.085Z,101040.42
2019-06-07T05:28:43.154Z,101037.91
2019-06-07T05:31:12.769Z,101029.14
2019-06-07T05:33:43.609Z,101029.14
2019-06-07T05:36:12.939Z,101021.65
2019-06-07T05:38:44.812Z,101008.81
2019-06-07T05:41:12.975Z,101017.23
2019-06-07T05:43:49.491Z,101017.23
2019-06-07T05:46:12.951Z,101008.20
2019-06-07T05:48:43.786Z,101004.30
2019-06-07T05:51:12.771Z,101000.13
2019-06-07T05:53:44.739Z,100995.58
2019-06-07T05:56:13.662Z,101002.19
2019-06-07T05:58:44.619Z,100996.30
2019-06-07T06:01:42.189Z,101001.02
2019-06-07T06:03:48.162Z,101004.70
2019-06-07T06:06:15.713Z,101004.56
2019-06-07T06:08:47.578Z,101004.56
2019-06-07T06:11:15.757Z,101006.67
2019-06-07T06:14:05.672Z,100998.00
2019-06-07T06:16:15.796Z,100993.78
2019-06-07T06:18:47.190Z,100984.02
2019-06-07T06:21:19.629Z,100980.11
2019-06-07T06:23:50.742Z,100973.16
2019-06-07T06:26:17.617Z,100975.73
2019-06-07T06:28:46.741Z,100971.69
2019-06-07T06:31:16.319Z,100971.69
2019-06-07T06:33:47.473Z,100970.05
2019-06-07T06:38:51.547Z,100967.66
2019-06-07T06:41:21.127Z,100976.59
2019-06-07T06:43:52.614Z,100984.11
2019-06-07T06:46:38.058Z,100981.98
2019-06-07T06:48:55.125Z,100981.50
2019-06-07T06:51:22.981Z,100971.11
2019-06-07T06:53:52.596Z,100965.69
2019-06-07T06:56:21.776Z,100964.30
2019-06-07T07:01:25.747Z,100953.95
2019-06-07T07:04:11.370Z,100949.30
2019-06-07T07:06:27.144Z,100938.22
2019-06-07T07:08:57.997Z,100938.15
2019-06-07T07:11:27.096Z,100944.30
2019-06-07T07:13:57.152Z,100942.58
2019-06-07T07:16:26.380Z,100946.52
2019-06-07T07:18:55.525Z,100950.34
2019-06-07T07:21:24.701Z,100951.24
2019-06-07T07:24:19.035Z,100937.62
2019-06-07T07:26:24.809Z,100940.56
2019-06-07T07:28:57.129Z,100940.56
2019-06-07T07:31:24.903Z,100932.16
2019-06-07T07:36:38.780Z,100924.36
2019-06-07T07:39:03.496Z,100937.39
2019-06-07T07:41:26.682Z,100935.26
2019-06-07T07:44:05.411Z,100936.82
2019-06-07T07:46:29.728Z,100919.14
2019-06-07T07:48:58.115Z,100905.78
2019-06-07T07:51:27.240Z,100906.16
2019-06-07T07:54:09.682Z,100909.98
2019-06-07T07:56:27.291Z,100896.36
2019-06-07T07:59:01.638Z,100901.62
2019-06-07T08:01:27.331Z,100896.02
2019-06-07T08:03:56.986Z,100882.44
2019-06-07T08:06:26.606Z,100872.73
2019-06-07T08:08:57.084Z,100875.56
2019-06-07T08:11:26.372Z,100866.67
2019-06-07T08:13:58.500Z,100870.50
2019-06-07T08:16:26.329Z,100862.49
2019-06-07T08:19:00.326Z,100848.00
2019-06-07T08:21:27.245Z,100857.58
2019-06-07T08:24:00.730Z,100856.70
2019-06-07T08:26:27.525Z,100856.70
2019-06-07T08:28:59.729Z,100838.81
2019-06-07T08:31:27.672Z,100830.13
2019-06-07T08:33:58.896Z,100837.23
2019-06-07T08:36:41.324Z,100837.23
2019-06-07T08:39:07.015Z,100804.19
2019-06-07T08:41:29.616Z,100804.19
2019-06-07T08:44:02.650Z,100809.90
2019-06-07T08:46:30.165Z,100800.31
2019-06-07T08:49:04.243Z,100801.20
2019-06-07T08:51:31.467Z,100801.20
2019-06-07T08:54:21.091Z,100789.72
2019-06-07T08:56:31.555Z,100783.73
2019-06-07T08:59:10.823Z,100791.80
2019-06-07T09:01:31.496Z,100783.44
2019-06-07T09:04:07.657Z,100790.97
2019-06-07T09:09:05.193Z,100783.95
2019-06-07T09:11:33.378Z,100783.57
2019-06-07T09:14:08.706Z,100768.23
2019-06-07T09:16:33.494Z,100761.88
2019-06-07T09:19:06.686Z,100761.88
2019-06-07T09:21:33.601Z,100770.71
2019-06-07T09:24:08.820Z,100768.59
2019-06-07T09:26:33.792Z,100754.45
2019-06-07T09:29:08.363Z,100743.41
2019-06-07T09:31:52.046Z,100745.37
2019-06-07T09:34:11.778Z,100731.14
2019-06-07T09:36:36.571Z,100734.66
2019-06-07T09:39:10.055Z,100725.16
2019-06-07T09:41:47.781Z,100729.79
2019-06-07T09:44:21.522Z,100729.81
2019-06-07T09:46:40.038Z,100716.89
2019-06-07T09:49:18.224Z,100716.89
2019-06-07T09:51:40.388Z,100705.45
2019-06-07T09:54:11.515Z,100700.83
2019-06-07T09:56:40.401Z,100701.08
2019-06-07T09:59:12.500Z,100688.78
2019-06-07T10:01:40.396Z,100682.50
2019-06-07T10:04:28.118Z,100682.50
2019-06-07T10:06:40.417Z,100668.41
2019-06-07T10:11:40.500Z,100659.14
2019-06-07T10:14:09.727Z,100668.87
2019-06-07T10:16:46.469Z,100664.30
2019-06-07T10:19:10.056Z,100660.09
2019-06-07T10:21:39.302Z,100653.41
2019-06-07T10:24:09.624Z,100657.41
2019-06-07T10:26:38.969Z,100657.41
2019-06-07T10:29:09.084Z,100648.05
2019-06-07T10:31:39.073Z,100631.95
2019-06-07T10:34:08.499Z,100626.80
2019-06-07T10:36:38.069Z,100600.26
2019-06-07T10:39:09.102Z,100617.30
2019-06-07T10:41:38.333Z,100603.65
2019-06-07T10:44:07.614Z,100598.38
2019-06-07T10:46:36.714Z,100607.28
2019-06-07T10:49:06.184Z,100607.28
2019-06-07T10:51:35.387Z,100612.06
2019-06-07T10:54:11.300Z,100602.77
2019-06-07T10:56:35.510Z,100584.30
2019-06-07T10:59:05.215Z,100583.48
2019-06-07T11:01:34.486Z,100579.20
2019-06-07T11:04:03.653Z,100579.20
2019-06-07T11:06:32.909Z,100559.69
2019-06-07T11:09:02.038Z,100578.14
2019-06-07T11:11:31.241Z,100579.25
2019-06-07T11:14:00.455Z,100574.59
2019-06-07T11:16:29.629Z,100564.09
2019-06-07T11:18:58.742Z,100550.39
2019-06-07T11:21:27.855Z,100555.08
2019-06-07T11:23:57.087Z,100555.08
2019-06-07T11:26:26.275Z,100533.34
2019-06-07T11:28:55.418Z,100534.09
2019-06-07T11:31:26.362Z,100528.50
2019-06-07T11:33:55.919Z,100528.11
2019-06-07T11:36:25.101Z,100519.11
2019-06-07T11:38:54.315Z,100526.97
2019-06-07T11:41:23.484Z,100518.79
2019-06-07T11:43:52.786Z,100518.79
2019-06-07T11:46:22.172Z,100513.19
2019-06-07T11:48:51.314Z,100503.22
2019-06-07T11:51:20.423Z,100500.11
2019-06-07T11:53:49.627Z,100496.42
2019-06-07T11:56:18.738Z,100493.10
2019-06-07T11:58:47.934Z,100493.75
2019-06-07T12:01:18.669Z,100489.38
2019-06-07T12:03:48.026Z,100489.38
2019-06-07T12:06:18.115Z,100480.70
2019-06-07T12:08:47.264Z,100473.09
2019-06-07T12:11:16.606Z,100472.11
2019-06-07T12:13:45.801Z,100460.48
2019-06-07T12:16:15.383Z,100457.73
2019-06-07T12:18:44.636Z,100462.31
2019-06-07T12:21:13.813Z,100450.37
2019-06-07T12:23:43.000Z,100450.37
2019-06-07T12:26:12.359Z,100433.74
2019-06-07T12:28:41.500Z,100433.74
2019-06-07T12:31:10.906Z,100421.12
2019-06-07T12:33:40.252Z,100416.29
2019-06-07T12:36:09.472Z,100417.25
2019-06-07T12:38:38.775Z,100405.67
2019-06-07T12:41:07.987Z,100411.64
2019-06-07T12:43:37.187Z,100409.81
2019-06-07T12:46:06.365Z,100408.45
2019-06-07T12:48:35.560Z,100403.33
2019-06-07T12:51:04.882Z,100403.33
2019-06-07T12:53:34.014Z,100409.61
2019-06-07T12:56:03.194Z,100406.37
2019-06-07T12:58:37.262Z,100396.27
2019-06-07T13:01:03.385Z,100400.52
2019-06-07T13:03:32.524Z,100394.15
2019-06-07T13:06:01.736Z,100394.15
2019-06-07T13:08:30.925Z,100396.63
2019-06-07T13:11:14.002Z,100388.86
2019-06-07T13:13:31.029Z,100378.81
2019-06-07T13:16:00.220Z,100389.55
2019-06-07T13:18:33.040Z,100382.06
2019-06-07T13:21:02.255Z,100383.91
2019-06-07T13:23:31.420Z,100383.62
2019-06-07T13:26:00.592Z,100377.45
2019-06-07T13:28:29.796Z,100377.45
2019-06-07T13:30:58.982Z,100375.07
2019-06-07T13:33:35.337Z,100374.41
2019-06-07T13:35:59.078Z,100369.63
2019-06-07T13:38:29.130Z,100372.06
2019-06-07T13:40:58.504Z,100367.67
2019-06-07T13:43:28.200Z,100367.23
2019-06-07T13:45:57.530Z,100354.83
2019-06-07T13:48:27.836Z,100351.09
2019-06-07T13:50:57.644Z,100357.64
2019-06-07T13:53:27.246Z,100357.80
2019-06-07T13:55:56.286Z,100352.94
2019-06-07T13:58:26.467Z,100352.94
2019-06-07T14:00:55.800Z,100342.70
2019-06-07T14:03:29.262Z,100349.00
2019-06-07T14:05:56.199Z,100345.42
2019-06-07T14:08:25.405Z,100347.41
2019-06-07T14:10:54.685Z,100338.52
2019-06-07T14:13:25.731Z,100339.78
2019-06-07T14:15:55.507Z,100334.50
2019-06-07T14:18:24.784Z,100344.28
2019-06-07T14:20:54.491Z,100344.02
2019-06-07T14:23:42.321Z,100333.79
2019-06-07T14:25:55.141Z,100339.47
2019-06-07T14:28:30.858Z,100333.84
2019-06-07T14:30:59.972Z,100326.31
2019-06-07T14:33:30.646Z,100335.84
2019-06-07T14:36:00.501Z,100331.94
2019-06-07T14:38:33.793Z,100327.47
2019-06-07T14:41:00.838Z,100322.60
2019-06-07T14:43:31.601Z,100327.39
2019-06-07T14:46:01.080Z,100334.27
2019-06-07T14:48:30.488Z,100337.31
2019-06-07T14:51:00.535Z,100324.35
2019-06-07T14:53:30.873Z,100333.23
2019-06-07T14:56:02.681Z,100339.74
2019-06-07T14:58:38.086Z,100344.39
2019-06-07T15:01:05.467Z,100340.27
2019-06-07T15:03:34.862Z,100343.02
2019-06-07T15:06:04.135Z,100329.27
2019-06-07T15:08:34.797Z,100342.23
2019-06-07T15:14:37.655Z,100348.11
2019-06-07T15:17:07.617Z,100358.73
2019-06-07T15:19:36.875Z,100360.12
2019-06-07T15:22:08.198Z,100369.59
2019-06-07T15:24:39.406Z,100373.53
2019-06-07T15:27:13.103Z,100384.54
2019-06-07T15:29:43.672Z,100386.13
2019-06-07T15:32:14.919Z,100410.48
2019-06-07T15:34:44.109Z,100443.94
2019-06-07T15:37:13.218Z,100429.98
2019-06-07T15:39:42.470Z,100434.75
2019-06-07T15:42:15.275Z,100425.56
2019-06-07T15:44:45.379Z,100418.09
2019-06-07T15:47:14.518Z,100431.38
2019-06-07T15:49:44.732Z,100454.72
2019-06-07T15:52:13.965Z,100454.92
2019-06-07T15:54:43.125Z,100460.84
2019-06-07T15:57:12.694Z,100447.87
2019-06-07T15:59:41.887Z,100478.45
2019-06-07T16:02:10.984Z,100467.89
2019-06-07T16:04:42.135Z,100469.45
2019-06-07T16:07:12.106Z,100469.51
2019-06-07T16:09:42.751Z,100493.10
2019-06-07T16:12:14.549Z,100485.38
2019-06-07T16:14:43.751Z,100485.38
2019-06-07T16:17:12.927Z,100498.40
2019-06-07T16:19:46.015Z,100487.53
2019-06-07T16:22:13.028Z,100494.32
2019-06-07T16:24:42.207Z,100504.83
2019-06-07T16:27:11.859Z,100504.83
2019-06-07T16:29:40.995Z,100487.92
2019-06-07T16:32:11.532Z,100499.13
2019-06-07T16:34:41.830Z,100498.83
2019-06-07T16:37:11.858Z,100500.17
2019-06-07T16:39:42.293Z,100501.84
2019-06-07T16:42:13.181Z,100506.48
2019-06-07T16:44:42.676Z,100508.54
2019-06-07T16:47:12.167Z,100508.54
2019-06-07T16:49:42.870Z,100541.61
2019-06-07T16:52:12.232Z,100546.63
2019-06-07T16:54:41.562Z,100547.19
2019-06-07T16:57:16.524Z,100537.88
2019-06-07T16:59:49.201Z,100524.87
2019-06-07T17:02:18.363Z,100518.01
2019-06-07T17:04:55.040Z,100537.05
2019-06-07T17:07:24.231Z,100533.73
2019-06-07T17:09:54.276Z,100550.47
2019-06-07T17:12:23.404Z,100560.20
2019-06-07T17:14:52.591Z,100560.20
2019-06-07T17:17:21.912Z,100553.66
2019-06-07T17:19:51.036Z,100525.41
2019-06-07T17:22:20.615Z,100514.94
2019-06-07T17:24:50.878Z,100501.13
2019-06-07T17:27:20.063Z,100502.78
2019-06-07T17:29:50.118Z,100476.95
2019-06-07T17:32:19.357Z,100449.39
2019-06-07T17:34:48.477Z,100450.58
2019-06-07T17:37:17.666Z,100450.58
2019-06-07T17:39:46.879Z,100439.70
2019-06-07T17:42:16.001Z,100464.13
2019-06-07T17:44:45.188Z,100465.67
2019-06-07T17:47:14.226Z,100527.19
2019-06-07T17:49:44.231Z,100523.71
2019-06-07T17:52:13.583Z,100514.70
2019-06-07T17:54:43.791Z,100496.39
2019-06-07T17:57:13.387Z,100490.17
2019-06-07T17:59:42.577Z,100494.09
2019-06-07T18:02:15.275Z,100490.00
2019-06-07T18:04:43.144Z,100501.86
2019-06-07T18:07:13.394Z,100491.67
2019-06-07T18:09:43.363Z,100478.69
2019-06-07T18:12:12.540Z,100483.24
2019-06-07T18:14:41.711Z,100473.62
2019-06-07T18:17:10.888Z,100463.20
2019-06-07T18:19:40.814Z,100454.36
2019-06-07T18:22:09.996Z,100452.20
2019-06-07T18:24:42.774Z,100449.78
2019-06-07T18:27:12.068Z,100455.08
2019-06-07T18:29:41.249Z,100458.72
2019-06-07T18:32:13.397Z,100458.64
2019-06-07T18:34:41.118Z,100455.68
2019-06-07T18:37:10.213Z,100463.67
2019-06-07T18:39:39.286Z,100463.67
2019-06-07T18:42:08.407Z,100470.23
2019-06-07T18:44:37.520Z,100465.70
2019-06-07T18:47:06.706Z,100465.70
2019-06-07T18:49:36.201Z,100481.44
2019-06-07T18:52:14.681Z,100480.52
2019-06-07T18:54:43.997Z,100472.66
2019-06-07T18:57:13.212Z,100472.66
2019-06-07T18:59:42.240Z,100470.58
2019-06-07T19:02:12.053Z,100457.37
2019-06-07T19:04:41.244Z,100484.33
2019-06-07T19:07:10.416Z,100484.33
2019-06-07T19:09:39.613Z,100480.17
2019-06-07T19:12:08.737Z,100485.40
2019-06-07T19:14:37.946Z,100504.48
2019-06-07T19:17:07.214Z,100495.38
2019-06-07T19:19:36.326Z,100503.02
2019-06-07T19:22:05.505Z,100506.66
2019-06-07T19:24:34.809Z,100502.20
2019-06-07T19:27:04.451Z,100500.09
2019-06-07T19:29:33.621Z,100495.36
2019-06-07T19:32:03.481Z,100493.33
2019-06-07T19:34:33.509Z,100495.44
2019-06-07T19:37:05.088Z,100492.58
2019-06-07T19:39:34.716Z,100489.03
2019-06-07T19:42:04.307Z,100485.28
2019-06-07T19:44:34.203Z,100486.89
2019-06-07T19:47:03.548Z,100487.58
2019-06-07T19:49:32.693Z,100491.27
2019-06-07T19:52:03.224Z,100488.23
2019-06-07T19:54:34.179Z,100485.34
2019-06-07T19:57:03.748Z,100485.34
2019-06-07T19:59:33.284Z,100482.45
2019-06-07T20:02:04.067Z,100481.48
2019-06-07T20:04:33.606Z,100491.06
2019-06-07T20:07:03.930Z,100492.30
2019-06-07T20:09:33.883Z,100493.45
2019-06-07T20:12:03.132Z,100491.15
2019-06-07T20:14:32.324Z,100491.15
2019-06-07T20:17:05.546Z,100509.25
2019-06-07T20:19:33.633Z,100509.25
2019-06-07T20:22:03.182Z,100521.19
2019-06-07T20:24:32.437Z,100521.19
2019-06-07T20:27:02.347Z,100518.42
2019-06-07T20:29:31.571Z,100526.23
2019-06-07T20:32:00.867Z,100523.40
2019-06-07T20:34:30.076Z,100513.57
2019-06-07T20:37:00.211Z,100523.49
2019-06-07T20:39:29.473Z,100517.75
2019-06-07T20:41:59.537Z,100516.10
2019-06-07T20:44:29.055Z,100514.72
2019-06-07T20:46:58.197Z,100504.89
2019-06-07T20:49:27.373Z,100504.20
2019-06-07T20:51:56.488Z,100498.83
2019-06-07T20:54:25.707Z,100502.13
2019-06-07T20:56:55.180Z,100491.11
2019-06-07T20:59:24.300Z,100499.20
2019-06-07T21:01:53.566Z,100487.16
2019-06-07T21:04:22.786Z,100501.17
2019-06-07T21:06:52.025Z,100493.59
2019-06-07T21:09:21.265Z,100484.03
2019-06-07T21:11:50.539Z,100484.03
2019-06-07T21:14:21.254Z,100471.41
2019-06-07T21:16:50.969Z,100475.59
2019-06-07T21:19:20.227Z,100479.35
2019-06-07T21:21:49.480Z,100472.00
2019-06-07T21:24:18.709Z,100470.03
2019-06-07T21:26:47.921Z,100462.91
2019-06-07T21:29:17.151Z,100472.04
2019-06-07T21:31:46.425Z,100454.73
2019-06-07T21:34:16.019Z,100461.30
2019-06-07T21:36:45.133Z,100471.81
2019-06-07T21:39:16.483Z,100460.27
2019-06-07T21:41:45.751Z,100460.27
2019-06-07T21:44:14.957Z,100466.34
2019-06-07T21:46:44.089Z,100457.30
2019-06-07T21:49:13.201Z,100460.47
2019-06-07T21:51:42.324Z,100443.89
2019-06-07T21:54:14.347Z,100456.05
2019-06-07T21:56:42.277Z,100448.44
2019-06-07T21:59:11.471Z,100448.44
2019-06-07T22:01:40.688Z,100442.47
2019-06-07T22:04:09.892Z,100442.47
2019-06-07T22:06:38.972Z,100447.11
2019-06-07T22:09:09.975Z,100449.41
2019-06-07T22:11:39.257Z,100443.53
2019-06-07T22:14:08.545Z,100443.53
2019-06-07T22:16:37.643Z,100443.62
2019-06-07T22:19:06.760Z,100441.63
2019-06-07T22:21:36.193Z,100442.78
2019-06-07T22:24:06.748Z,100436.59
2019-06-07T22:26:36.061Z,100433.84
2019-06-07T22:29:06.315Z,100433.84
2019-06-07T22:31:36.461Z,100435.70
2019-06-07T22:34:08.795Z,100446.31
2019-06-07T22:36:41.109Z,100446.31
2019-06-07T22:39:11.596Z,100439.88
2019-06-07T22:41:41.177Z,100456.14
2019-06-07T22:44:10.730Z,100456.92
2019-06-07T22:46:39.790Z,100454.81
2019-06-07T22:49:09.226Z,100463.35
2019-06-07T22:51:38.535Z,100463.35
2019-06-07T22:54:07.650Z,100460.83
2019-06-07T22:56:44.827Z,100465.10
2019-06-07T22:59:16.992Z,100459.55
2019-06-07T23:01:44.759Z,100459.41
2019-06-07T23:04:14.573Z,100463.50
2019-06-07T23:06:43.760Z,100460.45
2019-06-07T23:09:12.930Z,100459.87
2019-06-07T23:11:42.051Z,100455.92
2019-06-07T23:14:11.261Z,100456.83
2019-06-07T23:16:54.213Z,100465.15
2019-06-07T23:19:11.960Z,100460.24
2019-06-07T23:21:41.112Z,100460.24
2019-06-07T23:24:10.175Z,100439.59
2019-06-07T23:26:39.298Z,100462.95
2019-06-07T23:29:08.433Z,100472.97
2019-06-07T23:31:37.479Z,100471.00
2019-06-07T23:34:06.663Z,100482.72
2019-06-07T23:36:35.758Z,100485.05
2019-06-07T23:39:07.324Z,100487.50
2019-06-07T23:41:37.572Z,100489.11
2019-06-07T23:44:06.759Z,100489.11
2019-06-07T23:46:38.269Z,100485.45
2019-06-07T23:49:07.328Z,100485.45
2019-06-07T23:51:36.357Z,100481.59
2019-06-07T23:54:05.529Z,100471.44
2019-06-07T23:56:34.725Z,100474.02
2019-06-07T23:59:03.913Z,100469.33
